Cherrylog, Georgia
Current Conditions -  °F | °C
As of 5:35 AM on Saturday 01 Nov 2014 (Local Time) from KDNN Reporting Station
Overcast Overcast  
Wind Chill: 27°   Ceiling: 5500
Heat Index: 37°   Visibility: 10mi
Dew Point: 32°   Wind: 18mph
Humidity: 81%   Direction: 320°NW
Pressure: 29.99"   Gusts: 30mph
Location:  34.7325°N, 84.425°W
Report Text: KDNN 010935Z AUTO 32016G26KT 10SM SCT028 SCT045 OVC055 03/00 A2999 RMK AO2
Loading
Personal Weather Stations






























Interactive Weather Map
Tropical Storm Tracking
New forecast layout! Learn more

10-Day Weather Forecast

Advertisements
Track Severe Weather on mobile